createdAt,value
2023-04-15T00:00:14.166Z,98138.50
2023-04-15T00:01:19.508Z,98141.38
2023-04-15T00:02:21.787Z,98138.50
2023-04-15T00:03:23.945Z,98149.41
2023-04-15T00:04:25.967Z,98152.56
2023-04-15T00:05:29.604Z,98149.78
2023-04-15T00:06:31.521Z,98157.63
2023-04-15T00:07:33.402Z,98153.81
2023-04-15T00:08:35.249Z,98153.34
2023-04-15T00:09:37.050Z,98161.38
2023-04-15T00:10:38.835Z,98162.75
2023-04-15T00:11:40.548Z,98167.81
2023-04-15T00:12:42.606Z,98167.59
2023-04-15T00:13:44.730Z,98163.09
2023-04-15T00:14:46.532Z,98159.06
2023-04-15T00:15:48.209Z,98172.41
2023-04-15T00:16:55.666Z,98156.41
2023-04-15T00:17:57.953Z,98163.56
2023-04-15T00:18:59.924Z,98167.34
2023-04-15T00:20:01.901Z,98155.16
2023-04-15T00:21:04.778Z,98147.66
2023-04-15T00:22:07.187Z,98139.72
2023-04-15T00:23:08.898Z,98146.63
2023-04-15T00:24:10.643Z,98138.50
2023-04-15T00:25:12.367Z,98150.78
2023-04-15T00:26:14.339Z,98148.47
2023-04-15T00:27:16.423Z,98127.56
2023-04-15T00:28:18.967Z,98148.09
2023-04-15T00:29:20.698Z,98155.78
2023-04-15T00:30:22.679Z,98149.47
2023-04-15T00:31:24.468Z,98149.47
2023-04-15T00:32:26.334Z,98144.97
2023-04-15T00:33:28.098Z,98140.94
2023-04-15T00:34:30.101Z,98137.25
2023-04-15T00:35:34.894Z,98138.06
2023-04-15T00:36:36.745Z,98135.41
2023-04-15T00:37:38.539Z,98148.19
2023-04-15T00:38:40.318Z,98155.31
2023-04-15T00:39:42.080Z,98149.94
2023-04-15T00:40:43.809Z,98150.41
2023-04-15T00:41:47.440Z,98154.69
2023-04-15T00:42:49.135Z,98148.25
2023-04-15T00:43:50.980Z,98155.94
2023-04-15T00:44:52.676Z,98153.78
2023-04-15T00:45:56.108Z,98152.97
2023-04-15T00:46:58.629Z,98150.72
2023-04-15T00:48:00.461Z,98153.91
2023-04-15T00:49:04.577Z,98144.84
2023-04-15T00:50:06.986Z,98143.81
2023-04-15T00:51:09.809Z,98149.41
2023-04-15T00:52:11.567Z,98145.97
2023-04-15T00:53:13.249Z,98153.91
2023-04-15T00:54:15.313Z,98157.28
2023-04-15T00:55:17.137Z,98141.84
2023-04-15T00:56:24.565Z,98138.56
2023-04-15T00:57:27.189Z,98134.59
2023-04-15T00:58:29.268Z,98139.34
2023-04-15T00:59:31.831Z,98134.06
2023-04-15T01:00:33.600Z,98143.94
2023-04-15T01:01:38.702Z,98140.00
2023-04-15T01:02:41.127Z,98134.06
2023-04-15T01:03:43.189Z,98139.91
2023-04-15T01:04:44.971Z,98137.97
2023-04-15T01:05:46.885Z,98127.06
2023-04-15T01:06:48.580Z,98133.72
2023-04-15T01:07:50.388Z,98127.53
2023-04-15T01:08:52.116Z,98130.50
2023-04-15T01:09:54.084Z,98124.56
2023-04-15T01:10:57.417Z,98127.66
2023-04-15T01:11:59.468Z,98138.47
2023-04-15T01:13:01.248Z,98141.13
2023-04-15T01:14:03.310Z,98142.97
2023-04-15T01:15:05.899Z,98140.56
2023-04-15T01:16:08.978Z,98150.56
2023-04-15T01:17:10.748Z,98152.97
2023-04-15T01:18:12.636Z,98146.88
2023-04-15T01:19:16.870Z,98139.97
2023-04-15T01:20:18.813Z,98136.22
2023-04-15T01:21:20.934Z,98120.69
2023-04-15T01:22:23.926Z,98126.09
2023-04-15T01:23:26.450Z,98123.34
2023-04-15T01:24:30.482Z,98139.56
2023-04-15T01:25:33.717Z,98144.50
2023-04-15T01:26:38.709Z,98139.78
2023-04-15T01:27:42.440Z,98141.63
2023-04-15T01:28:44.325Z,98136.09
2023-04-15T01:29:46.183Z,98128.41
2023-04-15T01:30:48.116Z,98132.19
2023-04-15T01:31:55.163Z,98129.53
2023-04-15T01:32:57.091Z,98125.88
2023-04-15T01:33:59.491Z,98133.56
2023-04-15T01:35:01.526Z,98136.53
2023-04-15T01:36:03.898Z,98135.53
2023-04-15T01:37:05.666Z,98138.38
2023-04-15T01:38:09.527Z,98144.81
2023-04-15T01:39:11.319Z,98141.59
2023-04-15T01:40:14.066Z,98148.84
2023-04-15T01:41:15.770Z,98151.25
2023-04-15T01:42:17.756Z,98161.13
2023-04-15T01:43:19.839Z,98150.69
2023-04-15T01:44:21.822Z,98162.16
2023-04-15T01:45:23.729Z,98163.75
2023-04-15T01:46:25.479Z,98167.22
2023-04-15T01:47:27.236Z,98168.25
2023-04-15T01:48:29.051Z,98170.09
2023-04-15T01:49:30.798Z,98175.66
2023-04-15T01:50:32.750Z,98174.56
2023-04-15T01:51:34.425Z,98174.84
2023-04-15T01:52:36.098Z,98175.31
2023-04-15T01:53:37.950Z,98165.19
2023-04-15T01:54:39.616Z,98174.63
2023-04-15T01:55:41.927Z,98149.00
2023-04-15T01:56:43.609Z,98180.03
2023-04-15T01:57:45.446Z,98173.41
2023-04-15T01:58:47.211Z,98188.81
2023-04-15T01:59:48.940Z,98179.13
2023-04-15T02:00:50.814Z,98184.19
2023-04-15T02:01:52.721Z,98184.44
2023-04-15T02:02:54.725Z,98183.97
2023-04-15T02:03:56.943Z,98181.56
2023-04-15T02:04:59.113Z,98187.19
2023-04-15T02:06:00.947Z,98173.84
2023-04-15T02:07:02.661Z,98182.28
2023-04-15T02:08:04.431Z,98188.59
2023-04-15T02:09:06.167Z,98189.63
2023-04-15T02:10:08.163Z,98185.34
2023-04-15T02:11:10.234Z,98192.69
2023-04-15T02:12:12.745Z,98178.22
2023-04-15T02:13:14.869Z,98164.66
2023-04-15T02:14:16.649Z,98182.00
2023-04-15T02:15:18.399Z,98184.88
2023-04-15T02:16:20.678Z,98177.28
2023-04-15T02:17:22.495Z,98185.34
2023-04-15T02:18:24.224Z,98178.44
2023-04-15T02:19:26.206Z,98183.25
2023-04-15T02:20:28.088Z,98177.97
2023-04-15T02:21:30.554Z,98176.94
2023-04-15T02:22:32.451Z,98190.75
2023-04-15T02:23:34.161Z,98190.97
2023-04-15T02:24:36.080Z,98192.81
2023-04-15T02:25:39.190Z,98194.41
2023-04-15T02:26:40.917Z,98198.66
2023-04-15T02:27:42.713Z,98197.41
2023-04-15T02:28:44.434Z,98194.53
2023-04-15T02:29:46.443Z,98189.84
2023-04-15T02:30:53.506Z,98190.63
2023-04-15T02:31:55.744Z,98166.72
2023-04-15T02:32:57.658Z,98173.38
2023-04-15T02:34:00.284Z,98178.22
2023-04-15T02:35:05.880Z,98180.06
2023-04-15T02:36:08.503Z,98175.69
2023-04-15T02:37:12.102Z,98160.97
2023-04-15T02:38:14.874Z,98162.47
2023-04-15T02:39:18.716Z,98173.41
2023-04-15T02:40:20.604Z,98175.69
2023-04-15T02:41:27.264Z,98182.13
2023-04-15T02:42:30.460Z,98185.00
2023-04-15T02:43:32.188Z,98186.25
2023-04-15T02:44:35.370Z,98190.38
2023-04-15T02:45:37.156Z,98195.66
2023-04-15T02:46:38.999Z,98188.22
2023-04-15T02:47:44.592Z,98193.28
2023-04-15T02:48:46.622Z,98183.16
2023-04-15T02:49:48.391Z,98179.13
2023-04-15T02:50:50.081Z,98186.47
2023-04-15T02:51:51.975Z,98183.38
2023-04-15T02:52:53.661Z,98179.13
2023-04-15T02:53:55.383Z,98176.03
2023-04-15T02:55:01.914Z,98183.47
2023-04-15T02:56:03.766Z,98177.88
2023-04-15T02:57:06.960Z,98185.69
2023-04-15T02:58:08.661Z,98191.53
2023-04-15T02:59:10.453Z,98174.06
2023-04-15T03:00:12.877Z,98181.56
2023-04-15T03:01:14.892Z,98183.16
2023-04-15T03:02:16.824Z,98177.41
2023-04-15T03:03:18.808Z,98176.38
2023-04-15T03:04:20.685Z,98178.44
2023-04-15T03:05:25.876Z,98177.16
2023-04-15T03:06:27.798Z,98177.97
2023-04-15T03:07:29.608Z,98188.81
2023-04-15T03:08:31.600Z,98185.34
2023-04-15T03:09:33.350Z,98190.16
2023-04-15T03:10:35.012Z,98192.81
2023-04-15T03:11:40.778Z,98189.84
2023-04-15T03:12:42.576Z,98200.19
2023-04-15T03:13:44.380Z,98195.22
2023-04-15T03:14:46.080Z,98195.34
2023-04-15T03:15:48.378Z,98197.19
2023-04-15T03:16:54.296Z,98204.19
2023-04-15T03:17:56.137Z,98219.13
2023-04-15T03:18:57.900Z,98217.09
2023-04-15T03:19:59.635Z,98215.78
2023-04-15T03:21:01.588Z,98207.63
2023-04-15T03:22:03.334Z,98213.50
2023-04-15T03:23:05.360Z,98202.34
2023-04-15T03:24:07.189Z,98209.47
2023-04-15T03:25:09.382Z,98198.00
2023-04-15T03:26:11.221Z,98210.97
2023-04-15T03:27:13.354Z,98211.31
2023-04-15T03:28:15.058Z,98214.75
2023-04-15T03:29:16.785Z,98222.09
2023-04-15T03:30:18.509Z,98219.59
2023-04-15T03:31:20.305Z,98221.28
2023-04-15T03:32:22.064Z,98215.75
2023-04-15T03:33:23.869Z,98221.97
2023-04-15T03:34:25.846Z,98227.50
2023-04-15T03:35:27.548Z,98225.28
2023-04-15T03:36:33.144Z,98228.75
2023-04-15T03:37:34.860Z,98234.47
2023-04-15T03:38:36.608Z,98229.88
2023-04-15T03:39:38.353Z,98244.13
2023-04-15T03:40:43.481Z,98235.63
2023-04-15T03:41:45.181Z,98242.88
2023-04-15T03:42:46.906Z,98245.53
2023-04-15T03:43:48.637Z,98240.69
2023-04-15T03:44:50.429Z,98249.84
2023-04-15T03:45:52.202Z,98249.63
2023-04-15T03:46:54.632Z,98255.72
2023-04-15T03:47:57.386Z,98248.47
2023-04-15T03:49:02.790Z,98241.47
2023-04-15T03:50:05.189Z,98253.75
2023-04-15T03:51:06.916Z,98246.19
2023-04-15T03:52:08.618Z,98256.16
2023-04-15T03:53:10.479Z,98256.75
2023-04-15T03:54:13.011Z,98260.78
2023-04-15T03:55:15.578Z,98267.44
2023-04-15T03:56:17.395Z,98260.31
2023-04-15T03:57:19.091Z,98265.97
2023-04-15T03:58:20.892Z,98259.06
2023-04-15T03:59:22.575Z,98267.56
2023-04-15T04:00:24.297Z,98257.94
2023-04-15T04:01:26.060Z,98264.94
2023-04-15T04:02:28.461Z,98271.59
2023-04-15T04:03:30.408Z,98262.06
2023-04-15T04:04:32.662Z,98262.53
2023-04-15T04:05:37.250Z,98266.78
2023-04-15T04:06:39.699Z,98266.34
2023-04-15T04:07:41.584Z,98269.22
2023-04-15T04:08:43.692Z,98267.81
2023-04-15T04:09:47.301Z,98257.38
2023-04-15T04:10:49.216Z,98271.06
2023-04-15T04:11:50.899Z,98269.44
2023-04-15T04:12:52.612Z,98273.34
2023-04-15T04:13:54.420Z,98277.81
2023-04-15T04:14:56.512Z,98274.84
2023-04-15T04:15:58.338Z,98290.00
2023-04-15T04:17:00.144Z,98285.75
2023-04-15T04:18:02.012Z,98282.53
2023-04-15T04:19:04.000Z,98287.25
2023-04-15T04:20:06.824Z,98285.41
2023-04-15T04:21:08.623Z,98284.59
2023-04-15T04:22:10.672Z,98276.91
2023-04-15T04:23:12.518Z,98279.31
2023-04-15T04:24:14.265Z,98275.28
2023-04-15T04:25:16.455Z,98270.00
2023-04-15T04:26:18.202Z,98272.88
2023-04-15T04:27:19.903Z,98280.78
2023-04-15T04:28:21.830Z,98281.22
2023-04-15T04:29:23.665Z,98286.41
2023-04-15T04:30:25.410Z,98290.50
2023-04-15T04:31:27.480Z,98293.47
2023-04-15T04:32:29.349Z,98284.22
2023-04-15T04:33:31.346Z,98281.09
2023-04-15T04:34:33.229Z,98286.81
2023-04-15T04:35:37.793Z,98287.56
2023-04-15T04:36:39.536Z,98290.78
2023-04-15T04:37:41.221Z,98282.19
2023-04-15T04:38:42.977Z,98289.94
2023-04-15T04:39:44.703Z,98282.72
2023-04-15T04:40:46.761Z,98291.84
2023-04-15T04:41:48.501Z,98295.44
2023-04-15T04:42:50.234Z,98308.81
2023-04-15T04:43:52.103Z,98306.91
2023-04-15T04:44:53.799Z,98314.41
2023-04-15T04:45:55.902Z,98309.69
2023-04-15T04:46:57.659Z,98300.56
2023-04-15T04:47:59.460Z,98303.06
2023-04-15T04:49:04.225Z,98303.72
2023-04-15T04:50:06.967Z,98309.50
2023-04-15T04:51:09.564Z,98305.41
2023-04-15T04:52:11.746Z,98306.25
2023-04-15T04:53:13.557Z,98304.47
2023-04-15T04:54:15.271Z,98302.94
2023-04-15T04:55:16.965Z,98303.75
2023-04-15T04:56:18.662Z,98303.97
2023-04-15T04:57:20.378Z,98302.31
2023-04-15T04:58:22.086Z,98299.50
2023-04-15T04:59:24.230Z,98304.47
2023-04-15T05:00:25.904Z,98302.31
2023-04-15T05:01:27.697Z,98303.31
2023-04-15T05:02:29.574Z,98303.88
2023-04-15T05:03:31.532Z,98302.22
2023-04-15T05:04:33.369Z,98309.03
2023-04-15T05:05:37.035Z,98309.47
2023-04-15T05:06:38.728Z,98305.31
2023-04-15T05:07:40.736Z,98310.78
2023-04-15T05:08:42.464Z,98300.25
2023-04-15T05:09:44.163Z,98302.72
2023-04-15T05:10:46.035Z,98299.31
2023-04-15T05:11:47.785Z,98303.06
2023-04-15T05:12:49.694Z,98301.78
2023-04-15T05:13:51.427Z,98295.94
2023-04-15T05:14:53.121Z,98294.03
2023-04-15T05:15:54.881Z,98306.03
2023-04-15T05:16:57.017Z,98304.66
2023-04-15T05:17:58.853Z,98303.53
2023-04-15T05:19:01.018Z,98307.22
2023-04-15T05:20:03.871Z,98305.50
2023-04-15T05:21:06.077Z,98301.16
2023-04-15T05:22:11.035Z,98304.28
2023-04-15T05:23:12.806Z,98308.53
2023-04-15T05:24:15.582Z,98306.88
2023-04-15T05:25:17.328Z,98303.31
2023-04-15T05:26:19.098Z,98308.84
2023-04-15T05:27:20.907Z,98312.97
2023-04-15T05:28:22.638Z,98309.88
2023-04-15T05:29:24.379Z,98314.06
2023-04-15T05:30:26.748Z,98312.53
2023-04-15T05:31:28.512Z,98312.94
2023-04-15T05:32:30.307Z,98313.34
2023-04-15T05:33:32.048Z,98315.25
2023-04-15T05:34:33.774Z,98316.94
2023-04-15T05:35:35.825Z,98316.22
2023-04-15T05:36:37.688Z,98318.22
2023-04-15T05:37:39.411Z,98327.44
2023-04-15T05:38:41.385Z,98319.25
2023-04-15T05:39:43.475Z,98325.47
2023-04-15T05:40:45.151Z,98326.84
2023-04-15T05:41:46.880Z,98336.22
2023-04-15T05:42:48.674Z,98327.16
2023-04-15T05:43:50.367Z,98333.66
2023-04-15T05:44:52.171Z,98348.22
2023-04-15T05:45:54.232Z,98340.16
2023-04-15T05:46:55.938Z,98349.03
2023-04-15T05:47:57.684Z,98339.09
2023-04-15T05:48:59.600Z,98345.59
2023-04-15T05:50:01.788Z,98340.69
2023-04-15T05:51:03.680Z,98339.47
2023-04-15T05:52:05.843Z,98338.31
2023-04-15T05:53:08.453Z,98328.09
2023-04-15T05:54:10.191Z,98340.31
2023-04-15T05:55:12.556Z,98340.03
2023-04-15T05:56:14.367Z,98343.81
2023-04-15T05:57:16.263Z,98341.50
2023-04-15T05:58:18.005Z,98348.88
2023-04-15T05:59:19.773Z,98347.19
2023-04-15T06:00:21.465Z,98351.50
2023-04-15T06:01:23.192Z,98353.44
2023-04-15T06:02:28.135Z,98355.16
2023-04-15T06:03:30.823Z,98352.88
2023-04-15T06:04:32.901Z,98359.06
2023-04-15T06:05:34.803Z,98360.75
2023-04-15T06:06:36.559Z,98361.19
2023-04-15T06:07:38.923Z,98359.81
2023-04-15T06:08:40.696Z,98367.47
2023-04-15T06:09:42.398Z,98366.13
2023-04-15T06:10:44.160Z,98363.75
2023-04-15T06:11:45.883Z,98362.56
2023-04-15T06:12:47.711Z,98365.56
2023-04-15T06:13:49.565Z,98361.47
2023-04-15T06:14:51.434Z,98362.94
2023-04-15T06:15:53.758Z,98360.78
2023-04-15T06:16:55.502Z,98367.06
2023-04-15T06:17:57.492Z,98366.81
2023-04-15T06:18:59.343Z,98368.66
2023-04-15T06:20:01.255Z,98372.09
2023-04-15T06:21:03.083Z,98366.47
2023-04-15T06:22:07.033Z,98381.41
2023-04-15T06:23:08.744Z,98374.59
2023-04-15T06:24:10.505Z,98373.97
2023-04-15T06:25:12.287Z,98374.88
2023-04-15T06:26:13.987Z,98381.59
2023-04-15T06:27:15.817Z,98376.72
2023-04-15T06:28:18.849Z,98376.00
2023-04-15T06:29:20.705Z,98373.31
2023-04-15T06:30:23.975Z,98374.59
2023-04-15T06:31:26.355Z,98383.25
2023-04-15T06:32:28.125Z,98375.63
2023-04-15T06:33:30.200Z,98378.81
2023-04-15T06:34:32.048Z,98381.03
2023-04-15T06:35:33.815Z,98384.84
2023-04-15T06:36:35.700Z,98378.81
2023-04-15T06:37:37.407Z,98382.81
2023-04-15T06:38:39.099Z,98381.69
2023-04-15T06:39:40.788Z,98389.06
2023-04-15T06:40:42.989Z,98384.16
2023-04-15T06:41:44.717Z,98385.59
2023-04-15T06:42:46.602Z,98393.41
2023-04-15T06:43:48.377Z,98391.69
2023-04-15T06:44:50.534Z,98393.47
2023-04-15T06:45:52.652Z,98390.63
2023-04-15T06:46:54.673Z,98396.66
2023-04-15T06:47:56.417Z,98393.63
2023-04-15T06:48:59.330Z,98390.16
2023-04-15T06:50:01.112Z,98392.34
2023-04-15T06:51:04.213Z,98393.78
2023-04-15T06:52:06.046Z,98400.00
2023-04-15T06:53:07.782Z,98395.81
2023-04-15T06:54:09.501Z,98383.38
2023-04-15T06:55:11.520Z,98394.19
2023-04-15T06:56:13.289Z,98391.44
2023-04-15T06:57:14.981Z,98396.81
2023-04-15T06:58:17.343Z,98390.41
2023-04-15T06:59:19.178Z,98392.03
2023-04-15T07:00:21.227Z,98387.81
2023-04-15T07:01:23.390Z,98377.31
2023-04-15T07:02:25.280Z,98390.34
2023-04-15T07:03:27.316Z,98387.28
2023-04-15T07:04:29.136Z,98387.06
2023-04-15T07:05:32.549Z,98382.44
2023-04-15T07:06:35.732Z,98387.19
2023-04-15T07:07:38.527Z,98363.00
2023-04-15T07:08:40.421Z,98383.50
2023-04-15T07:09:42.213Z,98387.59
2023-04-15T07:10:43.986Z,98381.72
2023-04-15T07:11:45.772Z,98399.09
2023-04-15T07:12:48.817Z,98395.72
2023-04-15T07:13:50.489Z,98392.06
2023-04-15T07:14:52.290Z,98403.50
2023-04-15T07:15:53.975Z,98393.56
2023-04-15T07:16:55.929Z,98401.03
2023-04-15T07:17:57.753Z,98407.44
2023-04-15T07:18:59.857Z,98394.72
2023-04-15T07:20:01.996Z,98404.09
2023-04-15T07:21:03.996Z,98395.59
2023-04-15T07:22:05.791Z,98392.56
2023-04-15T07:23:08.096Z,98401.31
2023-04-15T07:24:10.677Z,98372.47
2023-04-15T07:25:12.581Z,98402.00
2023-04-15T07:26:14.290Z,98400.34
2023-04-15T07:27:16.047Z,98401.97
2023-04-15T07:28:18.038Z,98399.13
2023-04-15T07:29:19.754Z,98405.47
2023-04-15T07:30:21.495Z,98409.78
2023-04-15T07:31:23.372Z,98403.41
2023-04-15T07:32:25.193Z,98408.59
2023-04-15T07:33:28.455Z,98408.88
2023-04-15T07:34:31.429Z,98402.06
2023-04-15T07:35:34.307Z,98407.13
2023-04-15T07:36:36.938Z,98404.31
2023-04-15T07:37:38.770Z,98405.31
2023-04-15T07:38:40.535Z,98411.25
2023-04-15T07:39:42.845Z,98399.78
2023-04-15T07:40:45.121Z,98395.13
2023-04-15T07:41:46.841Z,98395.38
2023-04-15T07:42:49.592Z,98403.97
2023-04-15T07:43:51.687Z,98405.25
2023-04-15T07:44:53.458Z,98403.59
2023-04-15T07:45:55.843Z,98395.47
2023-04-15T07:46:57.824Z,98398.69
2023-04-15T07:47:59.557Z,98399.38
2023-04-15T07:49:01.684Z,98392.59
2023-04-15T07:50:03.822Z,98391.38
2023-04-15T07:51:06.733Z,98392.69
2023-04-15T07:52:08.655Z,98392.78
2023-04-15T07:53:10.406Z,98401.22
2023-04-15T07:54:12.116Z,98391.38
2023-04-15T07:55:13.990Z,98401.03
2023-04-15T07:56:15.864Z,98397.78
2023-04-15T07:57:17.958Z,98395.03
2023-04-15T07:58:21.585Z,98400.53
2023-04-15T07:59:23.317Z,98402.53
2023-04-15T08:00:25.108Z,98391.88
2023-04-15T08:01:26.901Z,98396.84
2023-04-15T08:02:28.712Z,98393.09
2023-04-15T08:03:30.605Z,98394.59
2023-04-15T08:04:34.284Z,98392.88
2023-04-15T08:05:36.107Z,98383.78
2023-04-15T08:06:40.103Z,98394.28
2023-04-15T08:07:42.018Z,98397.28
2023-04-15T08:08:44.120Z,98390.22
2023-04-15T08:09:48.279Z,98386.63
2023-04-15T08:10:52.505Z,98383.34
2023-04-15T08:11:54.709Z,98395.34
2023-04-15T08:12:56.608Z,98392.22
2023-04-15T08:13:58.355Z,98394.31
2023-04-15T08:15:01.109Z,98389.72
2023-04-15T08:16:19.045Z,98400.47
2023-04-15T08:17:21.216Z,98385.03
2023-04-15T08:18:23.094Z,98386.53
2023-04-15T08:19:24.891Z,98393.09
2023-04-15T08:20:26.826Z,98391.66
2023-04-15T08:21:28.746Z,98385.22
2023-04-15T08:22:30.565Z,98397.97
2023-04-15T08:23:33.896Z,98396.53
2023-04-15T08:24:35.615Z,98395.06
2023-04-15T08:25:38.098Z,98392.06
2023-04-15T08:26:39.922Z,98397.94
2023-04-15T08:27:41.658Z,98395.06
2023-04-15T08:28:45.630Z,98394.78
2023-04-15T08:29:47.322Z,98396.66
2023-04-15T08:30:49.221Z,98392.97
2023-04-15T08:31:51.091Z,98390.81
2023-04-15T08:32:52.922Z,98397.84
2023-04-15T08:33:56.981Z,98393.31
2023-04-15T08:34:58.745Z,98390.88
2023-04-15T08:36:00.470Z,98397.88
2023-04-15T08:37:02.207Z,98391.28
2023-04-15T08:38:03.918Z,98389.81
2023-04-15T08:39:05.695Z,98390.28
2023-04-15T08:40:08.682Z,98385.50
2023-04-15T08:41:18.824Z,98382.13
2023-04-15T08:42:27.918Z,98384.50
2023-04-15T08:43:35.996Z,98385.16
2023-04-15T08:44:38.413Z,98395.09
2023-04-15T08:45:40.120Z,98390.59
2023-04-15T08:46:43.023Z,98390.28
2023-04-15T08:47:47.559Z,98398.81
2023-04-15T08:48:49.785Z,98392.78
2023-04-15T08:49:54.483Z,98391.16
2023-04-15T08:50:56.899Z,98389.72
2023-04-15T08:52:00.047Z,98400.34
2023-04-15T08:53:02.702Z,98388.84
2023-04-15T08:54:05.105Z,98386.81
2023-04-15T08:55:09.141Z,98389.91
2023-04-15T08:56:14.344Z,98387.97
2023-04-15T08:57:16.575Z,98395.81
2023-04-15T08:58:22.376Z,98387.50
2023-04-15T08:59:24.307Z,98390.69
2023-04-15T09:00:27.224Z,98388.97
2023-04-15T09:01:31.595Z,98388.41
2023-04-15T09:02:36.541Z,98386.91
2023-04-15T09:03:39.029Z,98382.78
2023-04-15T09:04:41.543Z,98391.63
2023-04-15T09:05:43.458Z,98394.38
2023-04-15T09:06:45.206Z,98393.56
2023-04-15T09:07:47.094Z,98389.09
2023-04-15T09:08:49.984Z,98393.50
2023-04-15T09:09:52.454Z,98399.75
2023-04-15T09:10:54.965Z,98394.09
2023-04-15T09:11:56.929Z,98389.88
2023-04-15T09:12:58.947Z,98390.13
2023-04-15T09:14:00.645Z,98393.72
2023-04-15T09:15:03.047Z,98397.22
2023-04-15T09:16:06.576Z,98394.97
2023-04-15T09:17:10.701Z,98393.63
2023-04-15T09:18:13.841Z,98393.63
2023-04-15T09:19:23.934Z,98391.34
2023-04-15T09:20:25.623Z,98380.75
2023-04-15T09:21:27.869Z,98383.16
2023-04-15T09:22:33.099Z,98377.63
2023-04-15T09:23:36.307Z,98380.28
2023-04-15T09:24:41.124Z,98374.53
2023-04-15T09:25:42.842Z,98374.13
2023-04-15T09:26:44.706Z,98375.00
2023-04-15T09:27:51.063Z,98386.56
2023-04-15T09:28:52.787Z,98369.84
2023-04-15T09:29:54.508Z,98365.09
2023-04-15T09:30:57.969Z,98363.88
2023-04-15T09:32:25.804Z,98365.69
2023-04-15T09:33:29.272Z,98362.53
2023-04-15T09:34:38.039Z,98359.25
2023-04-15T09:35:42.353Z,98358.66
2023-04-15T09:36:55.015Z,98364.41
2023-04-15T09:38:07.733Z,98363.78
2023-04-15T09:39:09.485Z,98366.00
2023-04-15T09:40:11.917Z,98362.88
2023-04-15T09:41:23.445Z,98368.41
2023-04-15T09:42:28.796Z,98365.94
2023-04-15T09:43:40.904Z,98369.56
2023-04-15T09:44:42.679Z,98365.06
2023-04-15T09:45:52.227Z,98362.19
2023-04-15T09:46:54.126Z,98364.03
2023-04-15T09:47:59.203Z,98369.97
2023-04-15T09:49:12.071Z,98359.41
2023-04-15T09:50:14.801Z,98363.06
2023-04-15T09:51:16.527Z,98365.00
2023-04-15T09:52:18.201Z,98361.56
2023-04-15T09:53:22.042Z,98367.72
2023-04-15T09:54:23.728Z,98364.69
2023-04-15T09:55:25.497Z,98363.50
2023-04-15T09:56:36.267Z,98362.56
2023-04-15T09:57:41.505Z,98351.44
2023-04-15T09:58:43.349Z,98373.78
2023-04-15T09:59:45.084Z,98370.16
2023-04-15T10:00:51.835Z,98373.13
2023-04-15T10:01:53.713Z,98360.88
2023-04-15T10:02:56.420Z,98360.34
2023-04-15T10:03:58.884Z,98366.63
2023-04-15T10:05:02.444Z,98355.56
2023-04-15T10:06:05.796Z,98346.72
2023-04-15T10:07:09.833Z,98355.09
2023-04-15T10:08:13.089Z,98352.16
2023-04-15T10:09:14.778Z,98344.22
2023-04-15T10:10:17.141Z,98352.06
2023-04-15T10:11:24.189Z,98347.47
2023-04-15T10:12:27.475Z,98351.13
2023-04-15T10:13:33.492Z,98350.63
2023-04-15T10:14:38.829Z,98346.16
2023-04-15T10:15:44.167Z,98353.19
2023-04-15T10:16:49.220Z,98348.84
2023-04-15T10:17:53.586Z,98352.59
2023-04-15T10:18:56.640Z,98346.03
2023-04-15T10:20:00.382Z,98341.97
2023-04-15T10:21:02.462Z,98340.53
2023-04-15T10:22:04.743Z,98342.13
2023-04-15T10:23:09.485Z,98330.97
2023-04-15T10:24:13.168Z,98332.06
2023-04-15T10:25:16.542Z,98324.53
2023-04-15T10:26:18.870Z,98318.13
2023-04-15T10:27:21.186Z,98326.66
2023-04-15T10:28:23.095Z,98328.72
2023-04-15T10:29:27.427Z,98329.22
2023-04-15T10:30:29.386Z,98317.19
2023-04-15T10:31:31.971Z,98331.66
2023-04-15T10:32:34.240Z,98324.59
2023-04-15T10:33:36.462Z,98327.94
2023-04-15T10:34:38.622Z,98327.97
2023-04-15T10:35:40.838Z,98331.22
2023-04-15T10:36:42.558Z,98312.03
2023-04-15T10:37:44.267Z,98321.56
2023-04-15T10:38:46.924Z,98327.88
2023-04-15T10:39:49.199Z,98315.91
2023-04-15T10:40:51.051Z,98314.66
2023-04-15T10:42:16.063Z,98315.75
2023-04-15T10:43:27.359Z,98314.69
2023-04-15T10:44:29.066Z,98307.09
2023-04-15T10:45:37.043Z,98303.06
2023-04-15T10:46:45.923Z,98309.59
2023-04-15T10:47:52.913Z,98314.28
2023-04-15T10:48:55.074Z,98308.75
2023-04-15T10:50:02.476Z,98306.38
2023-04-15T10:51:06.059Z,98312.47
2023-04-15T10:52:08.551Z,98316.19
2023-04-15T10:53:10.870Z,98315.06
2023-04-15T10:54:24.657Z,98313.13
2023-04-15T10:55:31.468Z,98302.72
2023-04-15T10:56:33.194Z,98307.34
2023-04-15T10:57:37.920Z,98289.28
2023-04-15T10:58:43.917Z,98293.13
2023-04-15T11:00:28.988Z,98297.25
2023-04-15T11:01:53.445Z,98301.31
2023-04-15T11:02:59.521Z,98300.47
2023-04-15T11:04:02.069Z,98294.19
2023-04-15T11:05:04.407Z,98290.28
2023-04-15T11:06:07.169Z,98296.72
2023-04-15T11:07:08.906Z,98295.19
2023-04-15T11:08:12.510Z,98301.09
2023-04-15T11:09:33.927Z,98299.53
2023-04-15T11:10:35.599Z,98299.56
2023-04-15T11:12:07.195Z,98294.78
2023-04-15T11:13:11.765Z,98292.91
2023-04-15T11:14:16.675Z,98295.75
2023-04-15T11:15:34.769Z,98289.88
2023-04-15T11:16:45.031Z,98278.31
2023-04-15T11:17:46.996Z,98282.06
2023-04-15T11:18:56.064Z,98288.44
2023-04-15T11:19:58.509Z,98292.06
2023-04-15T11:21:03.565Z,98288.63
2023-04-15T11:22:10.055Z,98285.81
2023-04-15T11:23:14.534Z,98287.38
2023-04-15T11:24:27.335Z,98281.84
2023-04-15T11:25:31.065Z,98289.28
2023-04-15T11:26:33.051Z,98286.09
2023-04-15T11:27:34.736Z,98288.28
2023-04-15T11:28:38.905Z,98285.75
2023-04-15T11:29:40.926Z,98284.75
2023-04-15T11:30:43.426Z,98276.75
2023-04-15T11:31:49.752Z,98287.53
2023-04-15T11:32:52.767Z,98287.25
2023-04-15T11:34:00.209Z,98278.31
2023-04-15T11:35:01.977Z,98274.50
2023-04-15T11:36:04.510Z,98283.56
2023-04-15T11:37:08.008Z,98277.50
2023-04-15T11:38:12.233Z,98273.63
2023-04-15T11:39:14.080Z,98262.44
2023-04-15T11:40:17.749Z,98259.06
2023-04-15T11:41:27.688Z,98273.47
2023-04-15T11:42:39.327Z,98265.78
2023-04-15T11:43:48.586Z,98270.22
2023-04-15T11:44:50.367Z,98255.28
2023-04-15T11:45:56.470Z,98270.78
2023-04-15T11:46:58.276Z,98261.72
2023-04-15T11:48:11.546Z,98261.72
2023-04-15T11:49:26.750Z,98255.81
2023-04-15T11:50:28.507Z,98260.69
2023-04-15T11:51:34.411Z,98262.13
2023-04-15T11:52:36.282Z,98265.34
2023-04-15T11:53:50.701Z,98259.53
2023-04-15T11:54:52.637Z,98265.13
2023-04-15T11:55:54.428Z,98253.81
2023-04-15T11:56:57.489Z,98254.22
2023-04-15T11:58:17.021Z,98251.16
2023-04-15T11:59:18.794Z,98253.19
2023-04-15T12:00:21.024Z,98243.97
2023-04-15T12:01:32.294Z,98249.31
2023-04-15T12:02:37.459Z,98249.16
2023-04-15T12:03:44.217Z,98242.59
2023-04-15T12:04:46.899Z,98236.09
2023-04-15T12:06:13.158Z,98237.81
2023-04-15T12:07:14.894Z,98239.59
2023-04-15T12:08:17.133Z,98237.47
2023-04-15T12:09:20.486Z,98237.22
2023-04-15T12:10:25.024Z,98239.50
2023-04-15T12:11:26.706Z,98245.03
2023-04-15T12:12:29.502Z,98242.91
2023-04-15T12:13:31.744Z,98234.94
2023-04-15T12:14:33.930Z,98240.47
2023-04-15T12:15:39.405Z,98239.91
2023-04-15T12:16:50.332Z,98244.59
2023-04-15T12:17:55.755Z,98236.81
2023-04-15T12:18:59.756Z,98233.13
2023-04-15T12:20:01.485Z,98243.53
2023-04-15T12:21:12.453Z,98235.16